Annandale, Minnesota
Current Conditions -  °F | °C
As of 1:15 AM on Sunday 23 Nov 2014 (Local Time) from KMGG Reporting Station
Haze Haze  
Wind Chill: 38°   Ceiling: 200
Heat Index: 42°   Visibility: 1.7mi
Dew Point: 41°   Wind: 6mph
Humidity: 99%   Direction: 170°S
Pressure: 29.44"   Gusts: NA
Location:  45.26°N, 94.12°W
Report Text: KMGG 230715Z AUTO 17005KT 1 3/4SM BR BKN002 OVC008 05/05 A2944 RMK AO2 T00540052
Loading
Personal Weather Stations






























Interactive Weather Map New forecast layout! Learn more

10-Day Weather Forecast

Advertisements
Track Severe Weather on mobile